Current Weather Conditions: station 44062

sailwx.info

Wind from 120 at 13 knots gusting 15

Air temperature 23.9° C

Last reported at 2019-Aug-25 21:18 UTC.
Time now 2019-Aug-25 22:57 UTC

Location: N 38°36' W 076°24'.
View on Google Maps.

See reports from other nearby stations

  
Tides and Currents Weather Stations Pressure Air Temp Water Temp Dewpoint Dewpoint Depression Visibility Wind Speed Wind Dir Waves Ship Positions
date/time (UTC)wind fromknots sea level pressurealtimeterstation pressurevisibilityair tempwater tempwave heightnotes
2019-Aug-25 21:18 120 13 gusting 15 23.9
2019-Aug-25 21:12 100 15 gusting 17 23.9
2019-Aug-25 20:54 080 17 gusting 19 24.0
2019-Aug-25 20:12 060 11 gusting 13 23.7
2019-Aug-25 20:06 060 13 gusting 13 23.6
2019-Aug-25 20:00 060 13 gusting 15 23.7 0.4
2019-Aug-25 19:24 110 15 gusting 17 23.8
2019-Aug-25 19:18 090 15 gusting 17 23.8
2019-Aug-25 19:00 060 13 gusting 17 23.9 0.5
2019-Aug-25 17:48 340 13 gusting 17 23.1
2019-Aug-25 16:48 050 15 gusting 17 22.9
2019-Aug-25 16:24 150 13 gusting 15 22.5
2019-Aug-25 16:12 150 13 gusting 15 22.3
2019-Aug-25 16:06 040 13 gusting 15 22.1
2019-Aug-25 15:54 040 15 gusting 17 21.9
2019-Aug-25 14:06 040 17 gusting 19 21.6
2019-Aug-25 13:36 050 19 gusting 23 21.5
2019-Aug-25 13:30 360 19 gusting 23 21.6
2019-Aug-25 13:12 090 21 gusting 23 21.4
2019-Aug-25 13:06 020 19 gusting 21 21.4
2019-Aug-25 12:48 080 19 gusting 21 21.4
2019-Aug-25 12:24 060 19 gusting 21 21.3
2019-Aug-25 12:12 320 17 gusting 19 21.6
2019-Aug-25 11:48 120 13 gusting 17 21.1
2019-Aug-25 11:30 070 13 gusting 15 21.1
2019-Aug-25 11:18 030 15 gusting 17 21.2
2019-Aug-25 11:00 350 15 gusting 17 21.3 0.5
2019-Aug-25 10:24 080 13 gusting 15 21.2
2019-Aug-25 10:00 070 15 gusting 17 21.7 0.4
2019-Aug-25 09:06 080 11 gusting 13 21.8
2019-Aug-25 08:00 0.3
2019-Aug-25 07:48 090 13 gusting 15 22.2
2019-Aug-25 07:24 090 11 gusting 13 22.1
2019-Aug-25 06:48 080 9 gusting 11 22.1
2019-Aug-25 06:42 090 11 gusting 13 22.1
2019-Aug-25 06:24 110 11 gusting 13 22.2
2019-Aug-25 05:54 080 11 gusting 15 22.2
2019-Aug-25 05:30 090 13 gusting 15 22.3
2019-Aug-25 04:12 090 11 gusting 13 22.6
2019-Aug-25 04:06 100 11 gusting 13 22.5
2019-Aug-25 02:54 100 11 gusting 13 22.8
2019-Aug-25 02:48 090 11 gusting 13 22.9
2019-Aug-25 02:24 140 11 gusting 13 22.9
2019-Aug-25 01:06 120 9 gusting 11 23.2
2019-Aug-25 00:24 130 13 gusting 17 23.4
2019-Aug-25 00:06 080 13 gusting 15 23.6
2019-Aug-24 23:36 120 11 gusting 15 23.8
2019-Aug-24 23:18 120 11 gusting 13 24.0
2019-Aug-24 23:06 110 11 gusting 13 24.0
2019-Aug-24 22:54 120 11 gusting 13 24.2
2019-Aug-24 22:48 100 11 gusting 13 24.1
2019-Aug-24 22:36 080 9 gusting 11 24.0
2019-Aug-24 22:18 070 9 gusting 13 24.3
2019-Aug-24 22:12 030 7 gusting 9 24.4
2019-Aug-24 21:48 050 9 gusting 11 24.5
2019-Aug-24 21:30 030 11 gusting 13 24.3
2019-Aug-24 21:06 030 11 gusting 15 24.3
2019-Aug-24 20:54 020 9 gusting 13 24.2
2019-Aug-24 20:00 020 11 gusting 13 23.7 0.3
2019-Aug-24 19:48 010 9 gusting 13 23.6
2019-Aug-24 19:42 030 11 gusting 11 23.6
2019-Aug-24 19:12 030 11 gusting 11 23.4
2019-Aug-24 18:24 020 11 gusting 13 23.1
2019-Aug-24 17:48 020 9 gusting 11 22.8
2019-Aug-24 17:42 030 9 gusting 11 22.7
2019-Aug-24 17:36 010 9 gusting 11 22.7
2019-Aug-24 17:12 020 11 gusting 15 22.5
2019-Aug-24 17:00 020 11 gusting 13 22.4 0.3
2019-Aug-24 16:36 010 11 gusting 13 22.3
2019-Aug-24 16:12 090 9 gusting 13 22.0
2019-Aug-24 16:06 040 7 gusting 9 21.9
2019-Aug-24 14:36 150 9 gusting 11 21.5
2019-Aug-24 14:06 310 11 gusting 13 21.5
2019-Aug-24 13:54 050 11 gusting 13 21.4
2019-Aug-24 13:18 160 11 gusting 13 21.4
2019-Aug-24 13:06 290 11 gusting 13 21.4
2019-Aug-24 13:00 040 11 gusting 13 21.5 0.5
2019-Aug-24 12:42 030 11 gusting 13 21.5
2019-Aug-24 12:18 060 15 gusting 17 21.6
2019-Aug-24 11:54 050 13 gusting 15 21.6
2019-Aug-24 10:30 060 15 gusting 17 22.0
2019-Aug-24 09:30 060 17 gusting 19 22.6
2019-Aug-24 09:24 050 15 gusting 19 22.6
2019-Aug-24 09:18 080 17 gusting 19 22.5
2019-Aug-24 08:54 050 17 gusting 19 22.7
2019-Aug-24 08:24 080 17 gusting 19 22.8
2019-Aug-24 08:18 060 15 gusting 17 22.9
2019-Aug-24 08:12 050 15 gusting 17 22.9
2019-Aug-24 08:00 050 17 gusting 17 23.0 0.6
2019-Aug-24 07:54 060 17 gusting 19 23.1
2019-Aug-24 07:48 060 17 gusting 19 23.1
2019-Aug-24 07:12 080 15 gusting 19 23.2
2019-Aug-24 07:06 040 15 gusting 19 23.2
2019-Aug-24 07:00 040 15 gusting 17 23.2 0.5
2019-Aug-24 06:48 050 15 gusting 19 23.3
2019-Aug-24 06:12 040 13 gusting 15 23.4
2019-Aug-24 05:30 020 11 gusting 13 22.5
2019-Aug-24 05:24 020 13 gusting 13 22.4
2019-Aug-24 05:06 040 13 gusting 15 22.5
2019-Aug-24 05:00 020 11 gusting 13 22.5 0.4
2019-Aug-24 03:30 010 15 gusting 17 23.2
2019-Aug-24 02:30 060 13 gusting 15 23.0
2019-Aug-24 02:18 110 13 gusting 15 23.0
2019-Aug-24 02:00 280 13 gusting 15 22.9 0.4
2019-Aug-24 01:30 330 13 gusting 15 22.3
2019-Aug-24 00:48 270 15 gusting 19 21.8
2019-Aug-24 00:42 350 15 gusting 17 21.8
2019-Aug-24 00:06 010 17 gusting 17 22.1
2019-Aug-23 23:48 070 15 gusting 17 22.0
2019-Aug-23 23:30 020 15 gusting 15 21.8
2019-Aug-23 23:18 050 13 gusting 15 21.9
2019-Aug-23 23:00 030 15 gusting 17 21.9 0.4
2019-Aug-23 22:48 030 17 gusting 21 21.6
2019-Aug-23 22:06 040 13 gusting 15 21.4
2019-Aug-23 22:00 040 11 gusting 13 21.4 0.3